Time;durP1;ratioP1;P1;durP2;ratioP2;P2;SDS_P1;SDS_P2;PMS_P1;PMS_P2;Temp;Humidity;BMP_temperature;BMP_pressure;BME280_temperature;BME280_humidity;BME280_pressure;Samples;Min_cycle;Max_cycle;Signal;HPM_P1;HPM_P2
2023/04/24 00:00:14;;;;;;;;;;;;;;;21.51;54.10;99820.56;4881424;29;4149;-68
2023/04/24 00:02:44;;;;;;;;;;;;;;;21.51;54.15;99820.56;4876737;29;4089;-67
2023/04/24 00:05:11;;;;;;;;;;;;;;;21.50;54.08;99816.22;4887815;29;4045;-68
2023/04/24 00:07:38;;;;;;;;;;;;;;;21.49;54.32;99806.13;4880618;29;4127;-67
2023/04/24 00:10:04;;;;;;;;;;;;;;;21.50;54.14;99804.69;4892381;29;4061;-68
2023/04/24 00:12:31;;;;;;;;;;;;;;;21.49;54.25;99806.13;4894517;29;4403;-68
2023/04/24 00:14:57;;;;;;;;;;;;;;;21.51;54.15;99800.41;4894678;29;4263;-68
2023/04/24 00:17:23;;;;;;;;;;;;;;;21.46;54.05;99795.94;4891932;29;4033;-68
2023/04/24 00:19:51;;;;;;;;;;;;;;;21.49;54.09;99795.31;4891216;29;5528;-68
2023/04/24 00:22:17;;;;;;;;;;;;;;;21.50;54.09;99790.28;4876428;29;3999;-68
2023/04/24 00:24:43;;;;;;;;;;;;;;;21.49;54.10;99780.19;4870737;29;3985;-68
2023/04/24 00:27:10;;;;;;;;;;;;;;;21.47;54.08;99771.50;4873822;29;3976;-68
2023/04/24 00:29:36;;;;;;;;;;;;;;;21.48;54.38;99775.84;4875101;29;4603;-68
2023/04/24 00:32:02;;;;;;;;;;;;;;;21.47;54.26;99763.59;4878752;29;4708;-67
2023/04/24 00:34:32;;;;;;;;;;;;;;;21.47;54.17;99757.81;4880135;29;4082;-68
2023/04/24 00:36:58;;;;;;;;;;;;;;;21.46;54.34;99755.63;4883356;29;4073;-67
2023/04/24 00:39:25;;;;;;;;;;;;;;;21.48;54.22;99747.03;4880181;29;4485;-67
2023/04/24 00:41:52;;;;;;;;;;;;;;;21.47;54.12;99745.56;4872389;29;4056;-68
2023/04/24 00:44:18;;;;;;;;;;;;;;;21.45;54.23;99737.63;4891515;29;4492;-68
2023/04/24 00:46:45;;;;;;;;;;;;;;;21.45;54.17;99742.66;4881247;29;4041;-68
2023/04/24 00:49:11;;;;;;;;;;;;;;;21.45;54.36;99752.00;4902924;29;4054;-68
2023/04/24 00:51:38;;;;;;;;;;;;;;;21.44;54.42;99749.81;4891819;29;4165;-67
2023/04/24 00:54:05;;;;;;;;;;;;;;;21.44;54.12;99741.16;4895368;29;4421;-68
2023/04/24 00:56:31;;;;;;;;;;;;;;;21.44;54.24;99749.81;4873391;29;4222;-67
2023/04/24 00:58:58;;;;;;;;;;;;;;;21.44;54.43;99752.69;4876210;29;4153;-68
2023/04/24 01:01:24;;;;;;;;;;;;;;;21.43;54.32;99751.22;4873792;29;4164;-68
2023/04/24 01:03:50;;;;;;;;;;;;;;;21.43;54.02;99757.00;4893817;29;4323;-68
2023/04/24 01:06:18;;;;;;;;;;;;;;;21.42;54.21;99750.50;4908617;29;4357;-68
2023/04/24 01:08:44;;;;;;;;;;;;;;;21.42;54.17;99750.50;4886205;29;4074;-68
2023/04/24 01:11:10;;;;;;;;;;;;;;;21.42;54.18;99750.50;4893226;29;4214;-68
2023/04/24 01:13:37;;;;;;;;;;;;;;;21.42;54.31;99752.66;4890574;29;4260;-68
2023/04/24 01:16:03;;;;;;;;;;;;;;;21.42;54.23;99749.78;4889423;29;4176;-68
2023/04/24 01:18:30;;;;;;;;;;;;;;;21.42;54.47;99744.03;4873460;29;4348;-68
2023/04/24 01:20:57;;;;;;;;;;;;;;;21.41;54.17;99743.25;4891818;29;4391;-68
2023/04/24 01:23:23;;;;;;;;;;;;;;;21.40;54.24;99730.28;4875644;29;4140;-68
2023/04/24 01:25:51;;;;;;;;;;;;;;;21.40;54.19;99738.19;4877288;29;4114;-68
2023/04/24 01:28:17;;;;;;;;;;;;;;;21.40;54.20;99729.53;4883752;29;4233;-68
2023/04/24 01:30:44;;;;;;;;;;;;;;;21.40;54.24;99718.03;4865406;29;4184;-68
2023/04/24 01:33:10;;;;;;;;;;;;;;;21.40;54.24;99724.53;4887653;29;4460;-68
2023/04/24 01:35:39;;;;;;;;;;;;;;;21.40;54.24;99735.31;4887053;29;4211;-68
2023/04/24 01:38:06;;;;;;;;;;;;;;;21.40;54.39;99741.06;4874358;29;4441;-68
2023/04/24 01:40:32;;;;;;;;;;;;;;;21.39;54.42;99733.81;4868033;29;4236;-68
2023/04/24 01:42:58;;;;;;;;;;;;;;;21.39;54.22;99733.81;4872821;29;4073;-68
2023/04/24 01:45:25;;;;;;;;;;;;;;;21.38;54.17;99735.25;4872151;29;4371;-68
2023/04/24 01:47:51;;;;;;;;;;;;;;;21.38;54.15;99732.38;4871436;29;4058;-68
2023/04/24 01:50:18;;;;;;;;;;;;;;;21.37;54.27;99725.13;4870168;29;4079;-68
2023/04/24 01:52:44;;;;;;;;;;;;;;;21.37;54.27;99725.13;4874551;29;4123;-68
2023/04/24 01:55:10;;;;;;;;;;;;;;;21.36;54.18;99727.28;4872992;29;4044;-68
2023/04/24 01:57:37;;;;;;;;;;;;;;;21.31;54.27;99720.69;4872275;29;4576;-68
2023/04/24 02:00:04;;;;;;;;;;;;;;;21.30;54.30;99721.38;4890410;29;3952;-68
2023/04/24 02:02:38;;;;;;;;;;;;;;;21.29;54.52;99723.53;4889512;29;4089;-68
2023/04/24 02:05:06;;;;;;;;;;;;;;;21.29;54.31;99714.88;4890593;29;4037;-68
2023/04/24 02:07:35;;;;;;;;;;;;;;;21.28;54.14;99719.19;4886873;29;5646;-68
2023/04/24 02:10:01;;;;;;;;;;;;;;;21.28;54.30;99719.19;4904552;29;4102;-68
2023/04/24 02:12:28;;;;;;;;;;;;;;;21.28;54.35;99704.78;4889741;29;4238;-67
2023/04/24 02:14:54;;;;;;;;;;;;;;;21.28;54.38;99695.41;4887595;29;4245;-67
2023/04/24 02:17:21;;;;;;;;;;;;;;;21.31;54.51;99706.31;4879571;29;4052;-68
2023/04/24 02:19:47;;;;;;;;;;;;;;;21.30;54.44;99704.84;4872416;29;4522;-68
2023/04/24 02:22:13;;;;;;;;;;;;;;;21.32;54.21;99702.00;4869859;29;4237;-68
2023/04/24 02:24:40;;;;;;;;;;;;;;;21.32;54.20;99707.75;4869596;29;4187;-67
2023/04/24 02:27:06;;;;;;;;;;;;;;;21.32;54.16;99702.00;4873097;29;4165;-67
2023/04/24 02:29:32;;;;;;;;;;;;;;;21.33;54.12;99699.88;4869773;29;4236;-67
2023/04/24 02:31:59;;;;;;;;;;;;;;;21.33;54.17;99699.88;4877608;29;4083;-68
2023/04/24 02:34:25;;;;;;;;;;;;;;;21.32;54.45;99707.75;4868856;29;4071;-67
2023/04/24 02:36:53;;;;;;;;;;;;;;;21.31;54.34;99700.53;4871129;29;4039;-68
2023/04/24 02:39:20;;;;;;;;;;;;;;;21.32;54.13;99698.38;4870504;29;4183;-67
2023/04/24 02:41:46;;;;;;;;;;;;;;;21.31;54.11;99694.78;4870758;29;4230;-68
2023/04/24 02:44:17;;;;;;;;;;;;;;;21.31;54.16;99694.78;4869909;29;4147;-71
2023/04/24 02:46:43;;;;;;;;;;;;;;;21.31;54.20;99694.78;4869824;29;4174;-67
2023/04/24 02:49:11;;;;;;;;;;;;;;;21.32;54.10;99698.38;4895553;29;4100;-68
2023/04/24 02:51:40;;;;;;;;;;;;;;;21.32;54.08;99690.47;4885623;29;5084;-68
2023/04/24 02:54:10;;;;;;;;;;;;;;;21.32;53.93;99687.59;4873396;29;4074;-68
2023/04/24 02:56:37;;;;;;;;;;;;;;;21.33;53.85;99691.22;4882133;29;4335;-67
2023/04/24 02:59:06;;;;;;;;;;;;;;;21.36;53.74;99700.66;4884727;29;4305;-68
2023/04/24 03:01:33;;;;;;;;;;;;;;;21.37;53.73;99702.09;4884833;29;4509;-68
2023/04/24 03:03:59;;;;;;;;;;;;;;;21.38;53.72;99709.34;4884329;29;4131;-68
2023/04/24 03:06:26;;;;;;;;;;;;;;;21.39;53.83;99710.78;4866475;29;5071;-68
2023/04/24 03:08:53;;;;;;;;;;;;;;;21.39;53.92;99711.50;4877920;29;4187;-67
2023/04/24 03:11:20;;;;;;;;;;;;;;;21.38;53.81;99715.09;4889429;29;4240;-68
2023/04/24 03:13:46;;;;;;;;;;;;;;;21.39;53.71;99707.91;4890478;29;4123;-68
2023/04/24 03:16:13;;;;;;;;;;;;;;;21.38;53.66;99715.81;4884195;29;4367;-68
2023/04/24 03:18:39;;;;;;;;;;;;;;;21.39;53.73;99710.78;4891026;29;4145;-67
2023/04/24 03:21:07;;;;;;;;;;;;;;;21.38;53.64;99715.81;4903146;29;4510;-68
2023/04/24 03:23:34;;;;;;;;;;;;;;;21.38;53.94;99709.34;4887839;29;4070;-68
2023/04/24 03:26:02;;;;;;;;;;;;;;;21.37;53.92;99714.34;4874185;29;4167;-68
2023/04/24 03:28:29;;;;;;;;;;;;;;;21.38;53.95;99715.09;4884327;29;4353;-67
2023/04/24 03:31:02;;;;;;;;;;;;;;;21.38;54.01;99715.81;4881779;29;4334;-68
2023/04/24 03:33:32;;;;;;;;;;;;;;;21.37;54.09;99707.84;4871562;29;4340;-67
2023/04/24 03:36:00;;;;;;;;;;;;;;;21.37;54.28;99711.47;4874720;29;4882;-68
2023/04/24 03:38:34;;;;;;;;;;;;;;;21.37;54.21;99707.84;4887164;29;5210;-67
2023/04/24 03:41:33;;;;;;;;;;;;;;;21.34;54.38;99712.84;4862950;29;4188;-68
2023/04/24 03:44:06;;;;;;;;;;;;;;;21.37;54.37;99710.72;4895671;29;4147;-68
2023/04/24 03:46:33;;;;;;;;;;;;;;;21.36;54.32;99709.28;4875592;29;4049;-68
2023/04/24 03:49:01;;;;;;;;;;;;;;;21.36;54.37;99709.28;4879835;29;4070;-68
2023/04/24 03:51:31;;;;;;;;;;;;;;;21.34;54.27;99715.72;4892649;29;4257;-68
2023/04/24 03:54:10;;;;;;;;;;;;;;;21.34;54.36;99710.69;4902304;29;4048;-68
2023/04/24 03:56:38;;;;;;;;;;;;;;;21.34;54.36;99712.84;4889100;29;4165;-68
2023/04/24 03:59:05;;;;;;;;;;;;;;;21.33;54.24;99703.47;4904228;29;4099;-68
2023/04/24 04:01:36;;;;;;;;;;;;;;;21.33;54.37;99708.50;4872223;29;4531;-67
2023/04/24 04:04:08;;;;;;;;;;;;;;;21.32;54.52;99707.75;4876924;29;4042;-68
2023/04/24 04:06:36;;;;;;;;;;;;;;;21.33;54.42;99702.75;4883605;29;4211;-68
2023/04/24 04:09:04;;;;;;;;;;;;;;;21.32;54.38;99698.38;4900397;29;4221;-68
2023/04/24 04:11:30;;;;;;;;;;;;;;;21.33;54.54;99705.63;4885929;29;4527;-68
2023/04/24 04:13:56;;;;;;;;;;;;;;;21.31;54.18;99703.41;4886753;29;4395;-68
2023/04/24 04:16:24;;;;;;;;;;;;;;;21.31;54.65;99709.19;4872964;29;4133;-68
2023/04/24 04:18:55;;;;;;;;;;;;;;;21.31;54.35;99712.06;4876178;29;4100;-68
2023/04/24 04:21:21;;;;;;;;;;;;;;;21.32;54.40;99707.03;4882527;29;4478;-67
2023/04/24 04:23:53;;;;;;;;;;;;;;;21.30;54.63;99704.84;4869844;29;4483;-68
2023/04/24 04:26:25;;;;;;;;;;;;;;;21.30;54.39;99707.72;4885286;29;4166;-67
2023/04/24 04:29:03;;;;;;;;;;;;;;;21.29;54.36;99720.66;4886907;29;4319;-68
2023/04/24 04:31:32;;;;;;;;;;;;;;;21.29;54.33;99714.88;4882933;29;4029;-68
2023/04/24 04:34:02;;;;;;;;;;;;;;;21.29;54.36;99714.88;4896604;29;4107;-67
2023/04/24 04:36:31;;;;;;;;;;;;;;;21.28;54.52;99713.44;4871934;29;4243;-68
2023/04/24 04:39:04;;;;;;;;;;;;;;;21.28;54.48;99712.69;4889471;29;4075;-68
2023/04/24 04:41:48;;;;;;;;;;;;;;;21.28;54.45;99716.31;4865705;29;4343;-68
2023/04/24 04:44:17;;;;;;;;;;;;;;;21.27;54.58;99716.97;4889647;29;5140;-68
2023/04/24 04:46:44;;;;;;;;;;;;;;;21.28;54.56;99719.19;4883894;29;4192;-68
2023/04/24 04:49:25;;;;;;;;;;;;;;;21.27;54.67;99714.84;4890085;29;4425;-68
2023/04/24 04:51:51;;;;;;;;;;;;;;;21.26;54.76;99716.25;4877496;29;4169;-68
2023/04/24 04:54:19;;;;;;;;;;;;;;;21.27;54.85;99720.59;4888424;29;4200;-68
2023/04/24 04:56:45;;;;;;;;;;;;;;;21.26;54.76;99730.66;4883498;29;4079;-68
2023/04/24 04:59:12;;;;;;;;;;;;;;;21.26;54.55;99727.78;4873090;29;4199;-68
2023/04/24 05:01:38;;;;;;;;;;;;;;;21.30;54.47;99733.63;4903101;29;4271;-69
2023/04/24 05:04:06;;;;;;;;;;;;;;;21.33;54.64;99735.16;4879400;29;3963;-72
2023/04/24 05:06:33;;;;;;;;;;;;;;;21.34;54.42;99735.88;4873566;29;4184;-70
2023/04/24 05:08:59;;;;;;;;;;;;;;;21.33;54.40;99731.53;4886570;29;4071;-71
2023/04/24 05:11:33;;;;;;;;;;;;;;;21.25;54.63;99739.97;4887966;29;4217;-78
2023/04/24 05:14:01;;;;;;;;;;;;;;;21.29;54.44;99732.16;4878399;29;4538;-72
2023/04/24 05:16:38;;;;;;;;;;;;;;;21.33;54.67;99746.66;4860099;29;4220;-76
2023/04/24 05:19:06;;;;;;;;;;;;;;;21.36;54.63;99746.72;4882049;29;3964;-73
2023/04/24 05:21:39;;;;;;;;;;;;;;;21.33;54.64;99732.25;4901972;29;4437;-73
2023/04/24 05:24:06;;;;;;;;;;;;;;;21.30;54.74;99742.28;4884222;29;4252;-73
2023/04/24 05:26:53;;;;;;;;;;;;;;;21.31;54.74;99751.66;4877890;29;4336;-73
2023/04/24 05:29:26;;;;;;;;;;;;;;;21.31;54.98;99748.75;4882870;29;4887;-73
2023/04/24 05:31:52;;;;;;;;;;;;;;;21.32;54.72;99747.34;4890754;29;5346;-73
2023/04/24 05:34:19;;;;;;;;;;;;;;;21.32;54.95;99756.69;4890645;29;4225;-73
2023/04/24 05:36:50;;;;;;;;;;;;;;;21.30;54.95;99756.69;4881173;29;4907;-73
2023/04/24 05:39:16;;;;;;;;;;;;;;;21.32;54.88;99756.69;4872720;29;4673;-73
2023/04/24 05:41:43;;;;;;;;;;;;;;;21.32;54.93;99753.81;4874379;29;4449;-74
2023/04/24 05:44:09;;;;;;;;;;;;;;;21.34;54.94;99765.38;4877677;29;4130;-73
2023/04/24 05:46:35;;;;;;;;;;;;;;;21.32;54.84;99759.59;4868136;29;4224;-77
2023/04/24 05:49:02;;;;;;;;;;;;;;;21.38;54.56;99761.16;4877375;29;4401;-74
2023/04/24 05:51:31;;;;;;;;;;;;;;;21.53;56.49;99754.34;4887000;29;4376;-78
2023/04/24 05:53:58;;;;;;;;;;;;;;;21.82;56.70;99766.56;4885805;29;3971;-81
2023/04/24 05:56:25;;;;;;;;;;;;;;;21.95;55.99;99759.66;4909862;29;5081;-71
2023/04/24 05:58:51;;;;;;;;;;;;;;;21.93;54.92;99765.38;4869590;29;4156;-79
2023/04/24 06:01:18;;;;;;;;;;;;;;;21.95;55.03;99762.53;4894478;29;4085;-78
2023/04/24 06:03:49;;;;;;;;;;;;;;;21.95;54.87;99763.25;4895161;29;4122;-78
2023/04/24 06:06:16;;;;;;;;;;;;;;;21.99;54.97;99767.63;4895582;29;4507;-79
2023/04/24 06:08:43;;;;;;;;;;;;;;;22.01;54.80;99774.19;4901060;29;4119;-78
2023/04/24 06:11:10;;;;;;;;;;;;;;;21.78;54.72;99777.97;4884060;29;4074;-82
2023/04/24 06:13:37;;;;;;;;;;;;;;;22.00;55.28;99769.84;4889797;29;4180;-70
2023/04/24 06:16:33;;;;;;;;;;;;;;;22.22;54.40;99769.63;4876119;29;4017;-69
2023/04/24 06:19:05;;;;;;;;;;;;;;;22.37;54.31;99770.66;4905454;29;4237;-70
2023/04/24 06:21:32;;;;;;;;;;;;;;;22.44;54.08;99771.50;4894772;29;4094;-71
2023/04/24 06:23:58;;;;;;;;;;;;;;;22.41;53.70;99773.63;4910976;29;4242;-72
2023/04/24 06:26:26;;;;;;;;;;;;;;;22.43;53.61;99782.31;4911983;29;4053;-70
2023/04/24 06:28:53;;;;;;;;;;;;;;;22.47;53.87;99778.78;4885827;29;5222;-68
2023/04/24 06:31:20;;;;;;;;;;;;;;;22.29;54.21;99777.00;4906586;29;4224;-75
2023/04/24 06:33:46;;;;;;;;;;;;;;;22.36;54.57;99777.84;4891946;29;4184;-71
2023/04/24 06:36:12;;;;;;;;;;;;;;;22.41;54.75;99782.28;4903488;29;4090;-71
2023/04/24 06:38:39;;;;;;;;;;;;;;;22.43;54.34;99779.44;4893735;29;4036;-79
2023/04/24 06:41:05;;;;;;;;;;;;;;;22.25;53.71;99787.72;4892367;29;4210;-77
2023/04/24 06:43:32;;;;;;;;;;;;;;;22.20;52.72;99789.03;4887436;29;4577;-74
2023/04/24 06:45:58;;;;;;;;;;;;;;;22.21;52.55;99776.81;4873724;29;4081;-71
2023/04/24 06:48:25;;;;;;;;;;;;;;;22.15;52.91;99780.28;4897414;29;3979;-69
2023/04/24 06:50:52;;;;;;;;;;;;;;;22.23;52.20;99773.25;4871062;29;4087;-73
2023/04/24 06:53:18;;;;;;;;;;;;;;;22.27;52.02;99774.06;4872983;29;4713;-77
2023/04/24 06:55:45;;;;;;;;;;;;;;;22.33;51.61;99782.09;4876295;29;4171;-71
2023/04/24 06:58:12;;;;;;;;;;;;;;;22.31;50.68;99767.63;4877296;29;4586;-71
2023/04/24 07:00:38;;;;;;;;;;;;;;;22.26;50.99;99760.31;4875700;29;4386;-74
2023/04/24 07:03:05;;;;;;;;;;;;;;;22.25;50.78;99770.41;4876875;29;4186;-77
2023/04/24 07:05:33;;;;;;;;;;;;;;;22.34;49.74;99767.00;4886824;29;4376;-79
2023/04/24 07:08:00;;;;;;;;;;;;;;;22.32;49.58;99769.13;4874468;29;4005;-77
2023/04/24 07:10:28;;;;;;;;;;;;;;;22.33;49.69;99767.69;4872676;29;5095;-74
2023/04/24 07:12:56;;;;;;;;;;;;;;;22.33;49.72;99770.56;4875075;29;3946;-75
2023/04/24 07:15:23;;;;;;;;;;;;;;;22.42;49.67;99777.97;4879280;29;4300;-75
2023/04/24 07:17:49;;;;;;;;;;;;;;;22.36;48.88;99772.09;4875435;29;4109;-81
2023/04/24 07:20:16;;;;;;;;;;;;;;;22.39;48.30;99770.69;4879319;29;4276;-72
2023/04/24 07:22:42;;;;;;;;;;;;;;;22.20;48.67;99774.59;4888195;29;4166;-79
2023/04/24 07:25:08;;;;;;;;;;;;;;;22.07;48.11;99776.47;4890464;29;4422;-72
2023/04/24 07:27:36;;;;;;;;;;;;;;;21.98;48.17;99789.25;4893791;29;4019;-74
2023/04/24 07:30:03;;;;;;;;;;;;;;;22.15;48.48;99786.03;4896122;29;4029;-82
2023/04/24 07:32:30;;;;;;;;;;;;;;;22.27;48.14;99790.66;4894169;29;4156;-78
2023/04/24 07:34:56;;;;;;;;;;;;;;;22.30;47.73;99766.19;4897490;29;6325;-80
2023/04/24 07:37:22;;;;;;;;;;;;;;;22.33;47.94;99770.56;4898634;29;3945;-87
2023/04/24 07:39:49;;;;;;;;;;;;;;;22.30;47.68;99769.78;4900541;29;4022;-84
2023/04/24 07:42:15;;;;;;;;;;;;;;;22.34;47.42;99767.00;4911879;29;3927;-81
2023/04/24 07:44:42;;;;;;;;;;;;;;;22.32;47.53;99766.97;4896023;29;4077;-81
2023/04/24 07:47:08;;;;;;;;;;;;;;;22.34;46.67;99772.78;4896365;29;4036;-80
2023/04/24 07:49:34;;;;;;;;;;;;;;;22.18;46.75;99770.25;4887688;29;4209;-78
2023/04/24 07:52:02;;;;;;;;;;;;;;;22.11;46.17;99774.41;4903294;29;4177;-85
2023/04/24 07:54:28;;;;;;;;;;;;;;;22.12;46.13;99767.22;4894557;29;4352;-77
2023/04/24 07:56:55;;;;;;;;;;;;;;;22.10;46.85;99766.44;4894568;29;3982;-75
2023/04/24 07:59:21;;;;;;;;;;;;;;;22.26;46.32;99760.31;4897645;29;4613;-76
2023/04/24 08:01:47;;;;;;;;;;;;;;;21.96;46.48;99772.63;4891811;29;5145;-80
2023/04/24 08:04:14;;;;;;;;;;;;;;;21.49;46.79;99768.66;4885813;29;4025;-83
2023/04/24 08:06:40;;;;;;;;;;;;;;;21.50;46.04;99764.38;4874536;29;4075;-78
2023/04/24 08:09:07;;;;;;;;;;;;;;;21.56;45.60;99770.28;4882941;29;4203;-72
2023/04/24 08:11:33;;;;;;;;;;;;;;;21.55;44.97;99774.56;4894136;29;4004;-71
2023/04/24 08:13:59;;;;;;;;;;;;;;;21.50;44.97;99767.25;4894702;29;4128;-73
2023/04/24 08:16:26;;;;;;;;;;;;;;;21.42;44.93;99767.06;4890706;29;4497;-75
2023/04/24 08:18:52;;;;;;;;;;;;;;;21.51;45.02;99762.97;4887967;29;4605;-74
2023/04/24 08:21:20;;;;;;;;;;;;;;;21.51;45.13;99763.69;4896361;29;4041;-74
2023/04/24 08:23:46;;;;;;;;;;;;;;;21.30;45.51;99764.56;4892679;29;4053;-74
2023/04/24 08:26:13;;;;;;;;;;;;;;;21.16;45.44;99759.19;4894705;29;4242;-77
2023/04/24 08:28:39;;;;;;;;;;;;;;;21.16;44.90;99762.06;4896264;29;4322;-77
2023/04/24 08:31:05;;;;;;;;;;;;;;;21.08;44.80;99758.97;4895204;29;4254;-76
2023/04/24 08:33:34;;;;;;;;;;;;;;;21.02;44.58;99773.19;4897937;29;4282;-77
2023/04/24 08:36:04;;;;;;;;;;;;;;;21.07;44.61;99769.78;4895329;29;4117;-77
2023/04/24 08:38:31;;;;;;;;;;;;;;;21.10;44.51;99773.44;4891276;29;4587;-77
2023/04/24 08:40:58;;;;;;;;;;;;;;;21.00;44.69;99770.28;4893340;29;4250;-76
2023/04/24 08:43:24;;;;;;;;;;;;;;;20.98;44.63;99767.34;4892607;29;4269;-77
2023/04/24 08:45:50;;;;;;;;;;;;;;;21.03;44.73;99768.94;4871668;29;4070;-77
2023/04/24 08:48:17;;;;;;;;;;;;;;;21.01;44.99;99766.00;4888407;29;4276;-72
2023/04/24 08:50:56;;;;;;;;;;;;;;;21.00;45.14;99776.75;4874544;29;3989;-66
2023/04/24 08:53:22;;;;;;;;;;;;;;;20.96;45.02;99770.16;4874426;29;4240;-66
2023/04/24 08:55:49;;;;;;;;;;;;;;;20.99;45.28;99768.81;4874700;29;4629;-66
2023/04/24 08:58:18;;;;;;;;;;;;;;;21.01;45.27;99766.00;4867745;29;4273;-66
2023/04/24 09:00:46;;;;;;;;;;;;;;;21.03;45.36;99774.69;4874128;29;4240;-66
2023/04/24 09:03:14;;;;;;;;;;;;;;;21.00;45.63;99776.03;4872004;29;4071;-66
2023/04/24 09:05:45;;;;;;;;;;;;;;;21.06;45.58;99784.84;4869082;29;4180;-65
2023/04/24 09:08:13;;;;;;;;;;;;;;;21.44;44.91;99769.97;4876423;29;4457;-68
2023/04/24 09:10:39;;;;;;;;;;;;;;;21.61;44.98;99766.06;4874585;29;4023;-68
2023/04/24 09:13:08;;;;;;;;;;;;;;;21.70;45.20;99767.72;4875461;29;4524;-68
2023/04/24 09:15:35;;;;;;;;;;;;;;;21.75;45.38;99769.28;4877058;29;4202;-66
2023/04/24 09:18:01;;;;;;;;;;;;;;;21.84;45.90;99769.47;4878119;29;5353;-65
2023/04/24 09:20:28;;;;;;;;;;;;;;;21.98;46.41;99766.19;4877209;29;4116;-71
2023/04/24 09:22:57;;;;;;;;;;;;;;;22.12;46.07;99764.34;4879773;29;4719;-69
2023/04/24 09:25:33;;;;;;;;;;;;;;;22.22;45.77;99766.00;4894457;29;4166;-68
2023/04/24 09:28:00;;;;;;;;;;;;;;;22.29;46.33;99773.38;4879529;29;4165;-68
2023/04/24 09:30:27;;;;;;;;;;;;;;;22.35;46.39;99774.22;4881438;29;4101;-68
2023/04/24 09:33:09;;;;;;;;;;;;;;;22.40;46.13;99775.03;4876688;29;4070;-67
2023/04/24 09:35:35;;;;;;;;;;;;;;;22.40;46.05;99775.03;4876671;29;4293;-70
2023/04/24 09:38:02;;;;;;;;;;;;;;;22.49;46.32;99782.44;4880045;29;4461;-72
2023/04/24 09:40:28;;;;;;;;;;;;;;;22.58;46.52;99778.28;4877534;29;4198;-72
2023/04/24 09:42:56;;;;;;;;;;;;;;;22.59;46.50;99779.78;4874993;29;3999;-72
2023/04/24 09:45:27;;;;;;;;;;;;;;;22.61;46.43;99776.19;4876581;29;4203;-72
2023/04/24 09:47:56;;;;;;;;;;;;;;;22.66;46.51;99782.78;4877718;29;4020;-72
2023/04/24 09:50:22;;;;;;;;;;;;;;;22.72;46.50;99774.97;4881384;29;4233;-72
2023/04/24 09:52:58;;;;;;;;;;;;;;;22.65;46.60;99766.88;4873460;29;4265;-72
2023/04/24 09:55:25;;;;;;;;;;;;;;;22.64;46.89;99762.53;4879317;29;4190;-73
2023/04/24 09:57:52;;;;;;;;;;;;;;;22.64;46.85;99771.19;4892461;29;4194;-73
2023/04/24 10:00:28;;;;;;;;;;;;;;;22.64;47.09;99769.03;4897589;29;3992;-72
2023/04/24 10:02:54;;;;;;;;;;;;;;;22.62;46.79;99768.28;4879030;29;4431;-71
2023/04/24 10:05:25;;;;;;;;;;;;;;;22.61;47.01;99766.78;4874600;29;4651;-71
2023/04/24 10:07:51;;;;;;;;;;;;;;;22.62;47.04;99759.63;4890300;29;4509;-72
2023/04/24 10:10:17;;;;;;;;;;;;;;;22.70;47.32;99766.28;4875504;29;4007;-73
2023/04/24 10:12:44;;;;;;;;;;;;;;;22.74;47.14;99771.38;4874415;29;4593;-73
2023/04/24 10:15:12;;;;;;;;;;;;;;;22.76;47.19;99771.44;4886544;29;4257;-73
2023/04/24 10:17:38;;;;;;;;;;;;;;;22.77;47.23;99772.91;4882786;29;4276;-73
2023/04/24 10:20:06;;;;;;;;;;;;;;;22.59;47.54;99767.50;4879402;29;4158;-72
2023/04/24 10:22:32;;;;;;;;;;;;;;;22.44;48.02;99762.88;4888524;29;4331;-71
2023/04/24 10:24:59;;;;;;;;;;;;;;;22.57;47.90;99770.34;4879838;29;4254;-72
2023/04/24 10:27:25;;;;;;;;;;;;;;;22.66;47.80;99753.94;4872747;29;4604;-72
2023/04/24 10:29:52;;;;;;;;;;;;;;;22.69;47.82;99755.44;4876015;29;4254;-71
2023/04/24 10:32:18;;;;;;;;;;;;;;;22.56;48.20;99749.44;4874389;29;4124;-72
2023/04/24 10:34:44;;;;;;;;;;;;;;;22.55;48.63;99750.84;4876398;29;4213;-74
2023/04/24 10:37:13;;;;;;;;;;;;;;;22.53;48.81;99747.91;4877683;29;4126;-75
2023/04/24 10:39:40;;;;;;;;;;;;;;;22.53;48.93;99756.56;4892544;29;4438;-74
2023/04/24 10:42:16;;;;;;;;;;;;;;;22.55;48.79;99761.66;4897869;29;4348;-74
2023/04/24 10:44:42;;;;;;;;;;;;;;;22.52;48.78;99763.75;4872146;29;4067;-74
2023/04/24 10:47:12;;;;;;;;;;;;;;;22.55;48.91;99773.91;4874677;29;4205;-73
2023/04/24 10:49:38;;;;;;;;;;;;;;;22.72;48.74;99774.97;4874517;29;4175;-74
2023/04/24 10:52:05;;;;;;;;;;;;;;;22.79;48.62;99778.69;4885911;29;4542;-71
2023/04/24 10:54:34;;;;;;;;;;;;;;;22.81;48.41;99781.63;4891524;29;4458;-71
2023/04/24 10:57:20;;;;;;;;;;;;;;;22.82;48.74;99788.88;4892891;29;4051;-72
2023/04/24 10:59:47;;;;;;;;;;;;;;;22.82;48.49;99774.44;4875056;29;4057;-71
2023/04/24 11:02:16;;;;;;;;;;;;;;;22.83;48.43;99767.22;4875397;29;4175;-71
2023/04/24 11:04:42;;;;;;;;;;;;;;;22.88;48.44;99774.53;4874784;29;4212;-72
2023/04/24 11:07:09;;;;;;;;;;;;;;;22.90;48.55;99765.91;4876352;29;4441;-73
2023/04/24 11:09:36;;;;;;;;;;;;;;;22.91;48.45;99766.66;4890222;29;4177;-72
2023/04/24 11:12:03;;;;;;;;;;;;;;;22.92;48.53;99754.41;4876349;29;4179;-72
2023/04/24 11:14:30;;;;;;;;;;;;;;;22.79;48.73;99761.38;4894297;29;4169;-73
2023/04/24 11:16:56;;;;;;;;;;;;;;;22.72;49.09;99754.78;4883527;29;4139;-72
2023/04/24 11:19:23;;;;;;;;;;;;;;;22.70;49.41;99748.22;4895025;29;4243;-72
2023/04/24 11:22:02;;;;;;;;;;;;;;;22.70;49.40;99745.34;4872358;29;4337;-71
2023/04/24 11:24:33;;;;;;;;;;;;;;;22.95;49.31;99743.63;4877410;29;4169;-70
2023/04/24 11:27:02;;;;;;;;;;;;;;;23.03;48.75;99731.53;4897212;29;4191;-69
2023/04/24 11:29:38;;;;;;;;;;;;;;;23.05;48.89;99740.25;4874641;29;4245;-69
2023/04/24 11:32:14;;;;;;;;;;;;;;;23.06;48.63;99730.13;4885389;29;4135;-69
2023/04/24 11:34:41;;;;;;;;;;;;;;;23.04;48.74;99733.00;4890402;29;4357;-71
2023/04/24 11:37:07;;;;;;;;;;;;;;;23.02;48.88;99730.06;4888304;29;4240;-71
2023/04/24 11:39:37;;;;;;;;;;;;;;;22.97;48.91;99735.00;4892784;29;4211;-70
2023/04/24 11:42:03;;;;;;;;;;;;;;;22.76;49.06;99746.19;4894681;29;4010;-72
2023/04/24 11:44:31;;;;;;;;;;;;;;;22.82;49.02;99724.66;4897675;29;4126;-70
2023/04/24 11:46:58;;;;;;;;;;;;;;;22.89;49.07;99717.56;4895484;29;4121;-73
2023/04/24 11:49:25;;;;;;;;;;;;;;;22.90;49.06;99721.91;4894300;29;4115;-74
2023/04/24 11:51:54;;;;;;;;;;;;;;;22.88;49.46;99724.75;4883534;29;4462;-68
2023/04/24 11:54:25;;;;;;;;;;;;;;;22.78;49.72;99736.84;4891065;29;4178;-70
2023/04/24 11:56:51;;;;;;;;;;;;;;;22.80;49.74;99745.53;4905600;29;4322;-70
2023/04/24 11:59:18;;;;;;;;;;;;;;;22.82;49.62;99730.41;4899871;29;4063;-70
2023/04/24 12:01:47;;;;;;;;;;;;;;;22.82;49.64;99724.66;4895255;29;4177;-70
2023/04/24 12:04:14;;;;;;;;;;;;;;;22.93;49.60;99729.91;4896203;29;4978;-69
2023/04/24 12:06:58;;;;;;;;;;;;;;;23.00;49.39;99734.38;4893902;29;4129;-69
2023/04/24 12:09:25;;;;;;;;;;;;;;;22.95;49.05;99738.59;4899990;29;4334;-70
2023/04/24 12:11:57;;;;;;;;;;;;;;;22.95;49.08;99743.63;4889709;29;4032;-70
2023/04/24 12:14:23;;;;;;;;;;;;;;;22.87;49.76;99735.56;4883092;29;4018;-70
2023/04/24 12:16:50;;;;;;;;;;;;;;;22.87;49.58;99729.06;4896142;29;4139;-69
2023/04/24 12:19:22;;;;;;;;;;;;;;;22.87;49.58;99741.34;4895521;29;4120;-70
2023/04/24 12:21:59;;;;;;;;;;;;;;;22.84;49.29;99731.19;4895277;29;3894;-74
2023/04/24 12:24:25;;;;;;;;;;;;;;;22.88;49.46;99739.19;4903101;29;4389;-68
2023/04/24 12:26:53;;;;;;;;;;;;;;;22.78;49.17;99751.28;4895670;29;4153;-76
2023/04/24 12:29:20;;;;;;;;;;;;;;;22.59;49.18;99745.16;4896999;29;3965;-75
2023/04/24 12:31:46;;;;;;;;;;;;;;;22.49;49.22;99744.94;4900288;29;4102;-77
2023/04/24 12:34:20;;;;;;;;;;;;;;;22.47;49.41;99744.91;4894493;29;4147;-75
2023/04/24 12:36:46;;;;;;;;;;;;;;;22.49;49.63;99756.47;4894387;29;4520;-75
2023/04/24 12:39:19;;;;;;;;;;;;;;;22.49;49.28;99744.22;4912383;29;5238;-74
2023/04/24 12:41:56;;;;;;;;;;;;;;;22.49;49.08;99747.81;4894460;29;4000;-74
2023/04/24 12:44:34;;;;;;;;;;;;;;;22.46;49.55;99749.22;4879532;29;3985;-75
2023/04/24 12:47:00;;;;;;;;;;;;;;;22.41;49.35;99747.66;4890036;29;4060;-73
2023/04/24 12:49:27;;;;;;;;;;;;;;;22.46;48.84;99752.09;4896844;29;4105;-73
2023/04/24 12:51:54;;;;;;;;;;;;;;;22.71;49.91;99755.47;4895433;29;4048;-72
2023/04/24 12:54:20;;;;;;;;;;;;;;;22.82;49.46;99742.69;4896335;29;4065;-71
2023/04/24 12:56:46;;;;;;;;;;;;;;;22.90;49.18;99745.00;4895434;29;4366;-70
2023/04/24 12:59:13;;;;;;;;;;;;;;;23.03;48.98;99743.09;4899618;29;4086;-68
2023/04/24 13:01:39;;;;;;;;;;;;;;;22.88;49.07;99750.72;4896608;29;4178;-70